createdAt,value
2023-04-21T00:01:30.073Z,100447.16
2023-04-21T00:05:33.405Z,100453.16
2023-04-21T00:09:36.433Z,100463.88
2023-04-21T00:13:40.723Z,100453.81
2023-04-21T00:17:43.866Z,100456.75
2023-04-21T00:21:46.981Z,100453.44
2023-04-21T00:25:49.941Z,100445.22
2023-04-21T00:29:54.179Z,100450.53
2023-04-21T00:33:57.155Z,100440.47
2023-04-21T00:38:01.079Z,100439.44
2023-04-21T00:42:04.143Z,100431.16
2023-04-21T00:46:08.411Z,100419.63
2023-04-21T00:50:12.141Z,100418.78
2023-04-21T00:54:15.434Z,100414.56
2023-04-21T00:58:18.380Z,100421.31
2023-04-21T01:02:23.372Z,100416.25
2023-04-21T01:06:26.892Z,100412.31
2023-04-21T01:10:30.100Z,100407.03
2023-04-21T01:14:33.146Z,100408.56
2023-04-21T01:18:37.859Z,100407.91
2023-04-21T01:22:42.801Z,100408.34
2023-04-21T01:26:49.365Z,100410.03
2023-04-21T01:30:52.431Z,100404.59
2023-04-21T01:34:58.976Z,100397.47
2023-04-21T01:39:04.203Z,100400.44
2023-04-21T01:43:07.587Z,100391.63
2023-04-21T01:47:11.413Z,100396.25
2023-04-21T01:51:15.862Z,100402.13
2023-04-21T01:55:21.834Z,100395.44
2023-04-21T01:59:24.833Z,100387.91
2023-04-21T02:03:28.031Z,100389.16
2023-04-21T02:07:31.059Z,100391.50
2023-04-21T02:11:35.363Z,100389.41
2023-04-21T02:15:38.619Z,100394.22
2023-04-21T02:19:42.480Z,100386.44
2023-04-21T02:23:45.724Z,100406.97
2023-04-21T02:27:50.244Z,100402.00
2023-04-21T02:32:03.064Z,100398.03
2023-04-21T02:36:14.254Z,100388.38
2023-04-21T02:40:17.218Z,100391.34
2023-04-21T02:44:21.823Z,100389.66
2023-04-21T02:48:24.711Z,100387.72
2023-04-21T02:52:28.078Z,100374.84
2023-04-21T02:56:31.832Z,100370.50
2023-04-21T03:00:36.196Z,100377.38
2023-04-21T03:04:39.475Z,100371.34
2023-04-21T03:08:42.981Z,100370.44
2023-04-21T03:12:46.021Z,100374.25
2023-04-21T03:16:50.641Z,100369.56
2023-04-21T03:20:53.909Z,100371.38
2023-04-21T03:24:59.967Z,100373.16
2023-04-21T03:29:02.867Z,100377.56
2023-04-21T03:33:07.944Z,100374.47
2023-04-21T03:37:11.395Z,100386.16
2023-04-21T03:41:14.456Z,100381.09
2023-04-21T03:45:19.689Z,100378.97
2023-04-21T03:49:23.920Z,100379.84
2023-04-21T03:53:26.966Z,100372.25
2023-04-21T03:57:29.890Z,100369.19
2023-04-21T04:01:32.826Z,100379.38
2023-04-21T04:05:37.880Z,100382.75
2023-04-21T04:09:40.930Z,100386.22
2023-04-21T04:13:43.840Z,100391.66
2023-04-21T04:17:46.848Z,100386.50
2023-04-21T04:21:51.104Z,100389.72
2023-04-21T04:25:54.084Z,100385.19
2023-04-21T04:29:57.723Z,100373.94
2023-04-21T04:34:00.667Z,100382.75
2023-04-21T04:38:04.943Z,100380.31
2023-04-21T04:42:09.471Z,100390.16
2023-04-21T04:46:13.617Z,100391.56
2023-04-21T04:50:16.648Z,100395.41
2023-04-21T04:54:21.105Z,100394.19
2023-04-21T04:58:24.734Z,100387.44
2023-04-21T05:02:27.732Z,100388.28
2023-04-21T05:06:30.874Z,100396.25
2023-04-21T05:10:35.079Z,100397.00
2023-04-21T05:14:38.108Z,100397.00
2023-04-21T05:18:41.329Z,100396.63
2023-04-21T05:22:44.228Z,100400.53
2023-04-21T05:26:48.556Z,100394.75
2023-04-21T05:30:51.689Z,100390.72
2023-04-21T05:34:54.904Z,100409.72
2023-04-21T05:38:58.136Z,100402.53
2023-04-21T05:43:02.764Z,100408.41
2023-04-21T05:47:05.965Z,100399.72
2023-04-21T05:51:09.773Z,100399.34
2023-04-21T05:55:12.658Z,100408.13
2023-04-21T05:59:16.959Z,100413.06
2023-04-21T06:03:20.101Z,100419.72
2023-04-21T06:07:23.250Z,100406.38
2023-04-21T06:11:26.251Z,100410.09
2023-04-21T06:15:30.509Z,100401.81
2023-04-21T06:19:37.709Z,100397.31
2023-04-21T06:23:40.996Z,100404.97
2023-04-21T06:27:45.632Z,100400.06
2023-04-21T06:31:50.057Z,100408.47
2023-04-21T06:35:53.105Z,100403.78
2023-04-21T06:39:56.322Z,100404.72
2023-04-21T06:43:59.432Z,100422.25
2023-04-21T06:48:03.824Z,100408.09
2023-04-21T06:52:06.911Z,100412.41
2023-04-21T06:56:09.798Z,100402.69
2023-04-21T07:00:13.895Z,100396.31
2023-04-21T07:04:18.272Z,100389.38
2023-04-21T07:08:21.280Z,100390.88
2023-04-21T07:12:24.186Z,100385.88
2023-04-21T07:16:27.110Z,100371.25
2023-04-21T07:20:31.465Z,100370.41
2023-04-21T07:24:35.678Z,100355.78
2023-04-21T07:28:38.993Z,100349.47
2023-04-21T07:32:41.926Z,100337.28
2023-04-21T07:36:46.401Z,100330.13
2023-04-21T07:40:49.462Z,100313.72
2023-04-21T07:44:53.092Z,100311.16
2023-04-21T07:48:56.344Z,100308.38
2023-04-21T07:53:01.875Z,100285.34
2023-04-21T07:57:05.168Z,100268.31
2023-04-21T08:01:08.072Z,100253.44
2023-04-21T08:05:11.349Z,100249.72
2023-04-21T08:09:15.975Z,100242.47
2023-04-21T08:13:20.709Z,100237.63
2023-04-21T08:17:23.712Z,100240.41
2023-04-21T08:21:26.694Z,100242.88
2023-04-21T08:25:31.114Z,100253.31
2023-04-21T08:29:34.157Z,100243.72
2023-04-21T08:33:43.866Z,100231.00
2023-04-21T08:37:53.586Z,100230.47
2023-04-21T08:41:59.918Z,100237.44
2023-04-21T08:46:03.907Z,100227.19
2023-04-21T08:50:08.568Z,100233.44
2023-04-21T08:54:11.501Z,100230.28
2023-04-21T08:58:15.919Z,100228.56
2023-04-21T09:02:20.379Z,100232.25
2023-04-21T09:06:43.517Z,100228.00
2023-04-21T09:10:47.485Z,100233.19
2023-04-21T09:14:51.789Z,100232.06
2023-04-21T09:18:54.725Z,100240.81
2023-04-21T09:22:57.682Z,100236.31
2023-04-21T09:27:03.681Z,100237.63
2023-04-21T09:31:13.987Z,100235.22
2023-04-21T09:35:17.722Z,100232.78
2023-04-21T09:39:38.322Z,100242.31
2023-04-21T09:43:46.235Z,100243.56
2023-04-21T09:47:51.752Z,100220.38
2023-04-21T09:56:01.184Z,100231.84
2023-04-21T10:00:06.332Z,100217.28
2023-04-21T10:04:11.221Z,100234.63
2023-04-21T10:08:14.642Z,100213.25
2023-04-21T10:12:18.985Z,100210.88
2023-04-21T10:16:23.313Z,100213.50
2023-04-21T10:20:27.673Z,100206.97
2023-04-21T10:24:30.982Z,100204.25
2023-04-21T10:28:47.641Z,100211.00
2023-04-21T10:33:02.853Z,100182.69
2023-04-21T10:37:11.518Z,100191.22
2023-04-21T10:41:27.978Z,100183.28
2023-04-21T10:45:31.664Z,100181.41
2023-04-21T10:49:38.970Z,100181.59
2023-04-21T10:53:45.938Z,100175.66
2023-04-21T10:57:49.427Z,100153.31
2023-04-21T11:01:52.844Z,100154.06
2023-04-21T11:05:55.945Z,100160.44
2023-04-21T11:10:01.452Z,100140.44
2023-04-21T11:14:04.632Z,100149.28
2023-04-21T11:18:08.819Z,100143.09
2023-04-21T11:22:11.797Z,100131.66
2023-04-21T11:26:16.148Z,100129.34
2023-04-21T11:30:19.021Z,100125.81
2023-04-21T11:34:22.467Z,100122.25
2023-04-21T11:38:25.535Z,100110.88
2023-04-21T11:42:30.253Z,100103.88
2023-04-21T11:46:33.810Z,100085.38
2023-04-21T11:50:39.038Z,100100.91
2023-04-21T11:54:42.145Z,100090.34
2023-04-21T11:58:46.929Z,100088.69
2023-04-21T12:02:55.719Z,100084.53
2023-04-21T12:06:59.432Z,100090.91
2023-04-21T12:11:03.763Z,100073.09
2023-04-21T12:15:09.312Z,100061.50
2023-04-21T12:19:12.376Z,100065.81
2023-04-21T12:23:15.240Z,100063.75
2023-04-21T12:27:19.222Z,100055.13
2023-04-21T12:31:23.550Z,100049.09
2023-04-21T12:35:26.638Z,100038.09
2023-04-21T12:39:30.311Z,100041.19
2023-04-21T12:43:33.962Z,100043.47
2023-04-21T12:47:39.431Z,100043.44
2023-04-21T12:51:42.590Z,100039.25
2023-04-21T12:55:56.774Z,100032.13
2023-04-21T13:00:08.630Z,100030.09
2023-04-21T13:04:13.356Z,100025.19
2023-04-21T13:08:16.473Z,100028.19
2023-04-21T13:12:19.340Z,100024.94
2023-04-21T13:16:22.339Z,100022.22
2023-04-21T13:20:26.977Z,100021.00
2023-04-21T13:24:29.964Z,100017.94
2023-04-21T13:28:33.020Z,100014.75
2023-04-21T13:32:36.083Z,100003.59
2023-04-21T13:36:41.124Z,99997.25
2023-04-21T13:40:45.601Z,99993.66
2023-04-21T13:44:48.532Z,99985.81
2023-04-21T13:48:51.780Z,99979.97
2023-04-21T13:52:56.186Z,99965.50
2023-04-21T13:56:59.152Z,99964.47
2023-04-21T14:01:02.123Z,99958.19
2023-04-21T14:05:05.549Z,99940.69
2023-04-21T14:09:10.768Z,99950.47
2023-04-21T14:13:26.914Z,99934.66
2023-04-21T14:17:36.986Z,99936.97
2023-04-21T14:21:39.913Z,99932.03
2023-04-21T14:25:44.191Z,99924.59
2023-04-21T14:29:47.163Z,99924.84
2023-04-21T14:33:50.139Z,99918.22
2023-04-21T14:37:55.292Z,99918.81
2023-04-21T14:41:59.769Z,99920.44
2023-04-21T14:46:02.967Z,99914.22
2023-04-21T14:50:07.911Z,99902.56
2023-04-21T14:54:11.492Z,99905.41
2023-04-21T14:58:15.941Z,99901.22
2023-04-21T15:02:19.972Z,99886.06
2023-04-21T15:06:23.042Z,99886.63
2023-04-21T15:10:25.934Z,99875.91
2023-04-21T15:14:30.340Z,99873.19
2023-04-21T15:18:33.525Z,99868.56
2023-04-21T15:22:36.769Z,99859.50
2023-04-21T15:26:40.308Z,99854.53
2023-04-21T15:30:44.862Z,99857.81
2023-04-21T15:34:48.034Z,99842.88
2023-04-21T15:38:50.952Z,99841.66
2023-04-21T15:42:53.912Z,99840.31
2023-04-21T15:46:58.243Z,99838.72
2023-04-21T15:51:01.410Z,99832.28
2023-04-21T15:55:04.561Z,99831.66
2023-04-21T15:59:07.851Z,99825.69
2023-04-21T16:03:12.791Z,99826.56
2023-04-21T16:07:16.010Z,99856.22
2023-04-21T16:11:19.034Z,99938.81
2023-04-21T16:15:24.767Z,99884.91
2023-04-21T16:19:29.479Z,99893.13
2023-04-21T16:23:32.430Z,99880.13
2023-04-21T16:27:35.581Z,99874.75
2023-04-21T16:31:38.659Z,99895.19
2023-04-21T16:35:43.184Z,99923.13
2023-04-21T16:39:46.576Z,99913.94
2023-04-21T16:43:49.506Z,99923.13
2023-04-21T16:47:52.783Z,99915.06
2023-04-21T16:51:57.350Z,99921.91
2023-04-21T16:56:00.263Z,99923.09
2023-04-21T17:00:05.789Z,99919.00
2023-04-21T17:04:13.960Z,99915.78
2023-04-21T17:08:18.523Z,99882.66
2023-04-21T17:12:21.650Z,99845.97
2023-04-21T17:16:24.858Z,99809.59
2023-04-21T17:20:27.956Z,99780.94
2023-04-21T17:24:44.905Z,99774.81
2023-04-21T17:28:55.266Z,99778.03
2023-04-21T17:33:14.887Z,99778.06
2023-04-21T17:37:19.624Z,99765.25
2023-04-21T17:41:23.828Z,99760.50
2023-04-21T17:45:26.729Z,99771.25
2023-04-21T17:49:29.762Z,99760.00
2023-04-21T17:53:32.976Z,99764.97
2023-04-21T17:57:37.199Z,99762.38
2023-04-21T18:01:40.284Z,99771.72
2023-04-21T18:05:43.427Z,99760.91
2023-04-21T18:09:48.946Z,99760.66
2023-04-21T18:13:53.280Z,99763.47
2023-04-21T18:17:56.375Z,99765.56
2023-04-21T18:21:59.324Z,99782.06
2023-04-21T18:26:02.321Z,99808.09
2023-04-21T18:30:08.675Z,99819.63
2023-04-21T18:34:11.993Z,99832.81
2023-04-21T18:38:15.188Z,99845.97
2023-04-21T18:42:18.329Z,99856.88
2023-04-21T18:46:23.631Z,99843.59
2023-04-21T18:50:28.355Z,99849.53
2023-04-21T18:54:31.996Z,99806.13
2023-04-21T18:58:34.859Z,99797.13
2023-04-21T19:02:39.585Z,99823.09
2023-04-21T19:06:42.642Z,99863.38
2023-04-21T19:10:46.198Z,99884.88
2023-04-21T19:14:49.692Z,99914.94
2023-04-21T19:18:54.211Z,99929.06
2023-04-21T19:22:57.366Z,99912.16
2023-04-21T19:27:01.767Z,99900.41
2023-04-21T19:31:04.719Z,99901.06
2023-04-21T19:35:09.734Z,99904.94
2023-04-21T19:39:13.077Z,99895.16
2023-04-21T19:43:16.117Z,99897.66
2023-04-21T19:47:19.105Z,99905.91
2023-04-21T19:51:23.857Z,99898.47
2023-04-21T19:55:27.374Z,99906.09
2023-04-21T19:59:31.065Z,99886.47
2023-04-21T20:03:34.307Z,99901.69
2023-04-21T20:07:39.761Z,99921.94
2023-04-21T20:11:42.819Z,99934.22
2023-04-21T20:15:45.890Z,99948.22
2023-04-21T20:19:49.096Z,99957.47
2023-04-21T20:23:53.444Z,99963.78
2023-04-21T20:27:56.823Z,99946.84
2023-04-21T20:31:59.949Z,99934.06
2023-04-21T20:36:07.301Z,99930.25
2023-04-21T20:40:13.164Z,99931.19
2023-04-21T20:44:16.891Z,99921.44
2023-04-21T20:48:20.213Z,99915.97
2023-04-21T20:52:23.130Z,99910.03
2023-04-21T20:56:33.903Z,99914.91
2023-04-21T21:00:36.880Z,99905.84
2023-04-21T21:04:41.445Z,99892.16
2023-04-21T21:08:44.539Z,99888.69
2023-04-21T21:12:48.800Z,99902.47
2023-04-21T21:16:56.609Z,99908.50
2023-04-21T21:20:59.854Z,99903.13
2023-04-21T21:25:02.912Z,99918.19
2023-04-21T21:29:07.194Z,99912.22
2023-04-21T21:33:10.071Z,99928.47
2023-04-21T21:37:12.972Z,99925.19
2023-04-21T21:41:17.107Z,99918.13
2023-04-21T21:45:21.407Z,99918.38
2023-04-21T21:49:24.366Z,99909.63
2023-04-21T21:53:27.235Z,99895.59
2023-04-21T21:57:30.404Z,99902.13
2023-04-21T22:01:34.855Z,99898.78
2023-04-21T22:05:37.848Z,99894.44
2023-04-21T22:09:41.535Z,99889.06
2023-04-21T22:13:44.665Z,99891.31
2023-04-21T22:17:49.051Z,99889.66
2023-04-21T22:21:52.128Z,99895.81
2023-04-21T22:25:55.091Z,99896.66
2023-04-21T22:30:00.631Z,99905.84
2023-04-21T22:34:05.129Z,99904.41
2023-04-21T22:38:08.094Z,99904.22
2023-04-21T22:42:11.100Z,99904.03
2023-04-21T22:46:14.139Z,99917.25
2023-04-21T22:50:19.957Z,99923.09
2023-04-21T22:54:23.284Z,99918.94
2023-04-21T22:58:28.716Z,99908.41
2023-04-21T23:02:32.055Z,99908.84
2023-04-21T23:06:36.370Z,99905.09
2023-04-21T23:10:39.386Z,99913.09
2023-04-21T23:14:42.296Z,99902.63
2023-04-21T23:18:45.319Z,99908.88
2023-04-21T23:22:50.176Z,99906.38
2023-04-21T23:26:56.758Z,99905.56
2023-04-21T23:30:59.689Z,99903.06
2023-04-21T23:35:04.655Z,99896.97
2023-04-21T23:39:12.756Z,99905.16
2023-04-21T23:43:17.813Z,99900.94
2023-04-21T23:47:20.828Z,99905.13
2023-04-21T23:51:24.071Z,99893.41
2023-04-21T23:55:28.365Z,99892.13
2023-04-21T23:59:31.283Z,99887.13
